sensor_id;sensor_type;location;lat;lon;timestamp;P1;durP1;ratioP1;P2;durP2;ratioP2
35110;SDS011;21290;50.158;8.658;2023-02-05T00:00:03;11.32;;;6.43;;
35110;SDS011;21290;50.158;8.658;2023-02-05T00:02:31;11.00;;;6.70;;
35110;SDS011;21290;50.158;8.658;2023-02-05T00:04:57;19.05;;;7.45;;
35110;SDS011;21290;50.158;8.658;2023-02-05T00:07:24;13.52;;;7.47;;
35110;SDS011;21290;50.158;8.658;2023-02-05T00:09:51;15.48;;;7.50;;
35110;SDS011;21290;50.158;8.658;2023-02-05T00:12:17;11.57;;;7.40;;
35110;SDS011;21290;50.158;8.658;2023-02-05T00:14:44;16.40;;;7.03;;
35110;SDS011;21290;50.158;8.658;2023-02-05T00:17:10;12.43;;;6.70;;
35110;SDS011;21290;50.158;8.658;2023-02-05T00:19:37;11.13;;;6.57;;
35110;SDS011;21290;50.158;8.658;2023-02-05T00:22:03;19.52;;;6.53;;
35110;SDS011;21290;50.158;8.658;2023-02-05T00:24:30;10.93;;;6.20;;
35110;SDS011;21290;50.158;8.658;2023-02-05T00:26:56;12.13;;;6.80;;
35110;SDS011;21290;50.158;8.658;2023-02-05T00:29:23;12.23;;;6.30;;
35110;SDS011;21290;50.158;8.658;2023-02-05T00:31:49;11.40;;;6.38;;
35110;SDS011;21290;50.158;8.658;2023-02-05T00:34:18;11.50;;;6.10;;
35110;SDS011;21290;50.158;8.658;2023-02-05T00:36:44;12.43;;;6.80;;
35110;SDS011;21290;50.158;8.658;2023-02-05T00:39:11;11.60;;;6.47;;
35110;SDS011;21290;50.158;8.658;2023-02-05T00:41:39;12.20;;;6.45;;
35110;SDS011;21290;50.158;8.658;2023-02-05T00:44:05;11.02;;;5.95;;
35110;SDS011;21290;50.158;8.658;2023-02-05T00:46:33;11.52;;;5.95;;
35110;SDS011;21290;50.158;8.658;2023-02-05T00:48:59;10.52;;;5.90;;
35110;SDS011;21290;50.158;8.658;2023-02-05T00:51:26;8.75;;;5.82;;
35110;SDS011;21290;50.158;8.658;2023-02-05T00:53:53;10.27;;;5.95;;
35110;SDS011;21290;50.158;8.658;2023-02-05T00:56:19;11.88;;;6.45;;
35110;SDS011;21290;50.158;8.658;2023-02-05T00:58:46;9.70;;;6.35;;
35110;SDS011;21290;50.158;8.658;2023-02-05T01:01:15;9.90;;;6.10;;
35110;SDS011;21290;50.158;8.658;2023-02-05T01:03:42;10.60;;;6.10;;
35110;SDS011;21290;50.158;8.658;2023-02-05T01:06:09;9.90;;;6.68;;
35110;SDS011;21290;50.158;8.658;2023-02-05T01:08:35;12.63;;;6.32;;
35110;SDS011;21290;50.158;8.658;2023-02-05T01:11:04;11.60;;;6.43;;
35110;SDS011;21290;50.158;8.658;2023-02-05T01:13:32;13.13;;;6.22;;
35110;SDS011;21290;50.158;8.658;2023-02-05T01:15:58;9.95;;;6.15;;
35110;SDS011;21290;50.158;8.658;2023-02-05T01:18:25;14.63;;;6.65;;
35110;SDS011;21290;50.158;8.658;2023-02-05T01:20:52;13.85;;;7.03;;
35110;SDS011;21290;50.158;8.658;2023-02-05T01:23:19;12.93;;;6.93;;
35110;SDS011;21290;50.158;8.658;2023-02-05T01:25:45;15.32;;;7.20;;
35110;SDS011;21290;50.158;8.658;2023-02-05T01:28:12;9.98;;;6.32;;
35110;SDS011;21290;50.158;8.658;2023-02-05T01:30:39;12.32;;;6.72;;
35110;SDS011;21290;50.158;8.658;2023-02-05T01:33:05;10.80;;;6.68;;
35110;SDS011;21290;50.158;8.658;2023-02-05T01:35:32;10.07;;;6.85;;
35110;SDS011;21290;50.158;8.658;2023-02-05T01:37:59;10.00;;;6.70;;
35110;SDS011;21290;50.158;8.658;2023-02-05T01:40:26;11.98;;;6.78;;
35110;SDS011;21290;50.158;8.658;2023-02-05T01:42:52;11.48;;;6.70;;
35110;SDS011;21290;50.158;8.658;2023-02-05T01:47:50;11.38;;;7.10;;
35110;SDS011;21290;50.158;8.658;2023-02-05T01:53:17;13.60;;;6.50;;
35110;SDS011;21290;50.158;8.658;2023-02-05T01:56:29;12.15;;;6.93;;
35110;SDS011;21290;50.158;8.658;2023-02-05T01:58:44;8.27;;;6.45;;
35110;SDS011;21290;50.158;8.658;2023-02-05T02:01:14;11.35;;;6.43;;
35110;SDS011;21290;50.158;8.658;2023-02-05T02:03:41;10.00;;;6.97;;
35110;SDS011;21290;50.158;8.658;2023-02-05T02:06:08;11.00;;;7.45;;
35110;SDS011;21290;50.158;8.658;2023-02-05T02:08:35;8.80;;;6.40;;
35110;SDS011;21290;50.158;8.658;2023-02-05T02:11:03;13.32;;;6.88;;
35110;SDS011;21290;50.158;8.658;2023-02-05T02:13:31;11.35;;;6.53;;
35110;SDS011;21290;50.158;8.658;2023-02-05T02:16:00;12.40;;;6.57;;
35110;SDS011;21290;50.158;8.658;2023-02-05T02:18:28;9.18;;;6.32;;
35110;SDS011;21290;50.158;8.658;2023-02-05T02:21:32;9.85;;;6.43;;
35110;SDS011;21290;50.158;8.658;2023-02-05T02:24:00;13.02;;;6.85;;
35110;SDS011;21290;50.158;8.658;2023-02-05T02:26:56;9.37;;;6.33;;
35110;SDS011;21290;50.158;8.658;2023-02-05T02:29:32;10.52;;;6.72;;
35110;SDS011;21290;50.158;8.658;2023-02-05T02:32:24;10.60;;;6.70;;
35110;SDS011;21290;50.158;8.658;2023-02-05T02:34:54;8.85;;;6.68;;
35110;SDS011;21290;50.158;8.658;2023-02-05T02:37:34;8.20;;;5.90;;
35110;SDS011;21290;50.158;8.658;2023-02-05T02:40:20;10.38;;;6.53;;
35110;SDS011;21290;50.158;8.658;2023-02-05T02:43:09;10.60;;;6.57;;
35110;SDS011;21290;50.158;8.658;2023-02-05T02:45:42;12.57;;;6.78;;
35110;SDS011;21290;50.158;8.658;2023-02-05T02:48:20;11.55;;;6.80;;
35110;SDS011;21290;50.158;8.658;2023-02-05T02:50:51;12.00;;;7.68;;
35110;SDS011;21290;50.158;8.658;2023-02-05T02:53:21;9.85;;;6.70;;
35110;SDS011;21290;50.158;8.658;2023-02-05T02:55:51;10.82;;;6.72;;
35110;SDS011;21290;50.158;8.658;2023-02-05T02:58:22;12.18;;;6.80;;
35110;SDS011;21290;50.158;8.658;2023-02-05T03:00:52;12.32;;;6.70;;
35110;SDS011;21290;50.158;8.658;2023-02-05T03:03:20;8.85;;;6.30;;
35110;SDS011;21290;50.158;8.658;2023-02-05T03:05:51;12.00;;;6.55;;
35110;SDS011;21290;50.158;8.658;2023-02-05T03:08:26;12.43;;;6.30;;
35110;SDS011;21290;50.158;8.658;2023-02-05T03:11:00;9.50;;;5.80;;
35110;SDS011;21290;50.158;8.658;2023-02-05T03:13:29;9.30;;;5.70;;
35110;SDS011;21290;50.158;8.658;2023-02-05T03:15:57;10.65;;;6.20;;
35110;SDS011;21290;50.158;8.658;2023-02-05T03:18:23;9.07;;;6.22;;
35110;SDS011;21290;50.158;8.658;2023-02-05T03:20:53;11.70;;;5.95;;
35110;SDS011;21290;50.158;8.658;2023-02-05T03:23:22;10.25;;;6.53;;
35110;SDS011;21290;50.158;8.658;2023-02-05T03:25:50;10.07;;;6.65;;
35110;SDS011;21290;50.158;8.658;2023-02-05T03:28:17;9.50;;;6.28;;
35110;SDS011;21290;50.158;8.658;2023-02-05T03:33:32;10.73;;;6.97;;
35110;SDS011;21290;50.158;8.658;2023-02-05T03:44:20;8.77;;;6.10;;
35110;SDS011;21290;50.158;8.658;2023-02-05T03:47:23;9.50;;;6.10;;
35110;SDS011;21290;50.158;8.658;2023-02-05T03:50:06;10.00;;;6.53;;
35110;SDS011;21290;50.158;8.658;2023-02-05T03:52:40;9.18;;;5.68;;
35110;SDS011;21290;50.158;8.658;2023-02-05T03:55:17;11.80;;;6.25;;
35110;SDS011;21290;50.158;8.658;2023-02-05T03:57:53;10.00;;;5.32;;
35110;SDS011;21290;50.158;8.658;2023-02-05T04:00:35;11.10;;;6.35;;
35110;SDS011;21290;50.158;8.658;2023-02-05T04:03:03;8.57;;;6.13;;
35110;SDS011;21290;50.158;8.658;2023-02-05T04:05:30;11.10;;;6.18;;
35110;SDS011;21290;50.158;8.658;2023-02-05T04:07:57;11.43;;;6.75;;
35110;SDS011;21290;50.158;8.658;2023-02-05T04:10:23;11.55;;;6.60;;
35110;SDS011;21290;50.158;8.658;2023-02-05T04:12:50;14.02;;;7.30;;
35110;SDS011;21290;50.158;8.658;2023-02-05T04:15:16;8.10;;;5.75;;
35110;SDS011;21290;50.158;8.658;2023-02-05T04:17:43;11.65;;;6.45;;
35110;SDS011;21290;50.158;8.658;2023-02-05T04:20:10;9.02;;;6.47;;
35110;SDS011;21290;50.158;8.658;2023-02-05T04:22:36;8.82;;;6.50;;
35110;SDS011;21290;50.158;8.658;2023-02-05T04:25:03;10.52;;;6.15;;
35110;SDS011;21290;50.158;8.658;2023-02-05T04:27:30;8.98;;;6.05;;
35110;SDS011;21290;50.158;8.658;2023-02-05T04:29:56;9.38;;;6.28;;
35110;SDS011;21290;50.158;8.658;2023-02-05T04:32:23;11.50;;;6.72;;
35110;SDS011;21290;50.158;8.658;2023-02-05T04:34:49;11.63;;;6.10;;
35110;SDS011;21290;50.158;8.658;2023-02-05T04:37:16;12.75;;;6.45;;
35110;SDS011;21290;50.158;8.658;2023-02-05T04:39:43;8.40;;;6.05;;
35110;SDS011;21290;50.158;8.658;2023-02-05T04:42:09;8.95;;;6.10;;
35110;SDS011;21290;50.158;8.658;2023-02-05T04:44:36;9.18;;;6.05;;
35110;SDS011;21290;50.158;8.658;2023-02-05T04:47:02;8.48;;;5.55;;
35110;SDS011;21290;50.158;8.658;2023-02-05T04:49:30;8.20;;;5.63;;
35110;SDS011;21290;50.158;8.658;2023-02-05T04:51:58;12.73;;;6.13;;
35110;SDS011;21290;50.158;8.658;2023-02-05T04:54:25;11.65;;;5.60;;
35110;SDS011;21290;50.158;8.658;2023-02-05T04:56:53;9.43;;;5.53;;
35110;SDS011;21290;50.158;8.658;2023-02-05T04:59:19;8.98;;;5.43;;
35110;SDS011;21290;50.158;8.658;2023-02-05T05:01:46;7.97;;;5.05;;
35110;SDS011;21290;50.158;8.658;2023-02-05T05:04:13;8.35;;;4.78;;
35110;SDS011;21290;50.158;8.658;2023-02-05T05:06:39;8.90;;;4.97;;
35110;SDS011;21290;50.158;8.658;2023-02-05T05:09:06;9.13;;;4.88;;
35110;SDS011;21290;50.158;8.658;2023-02-05T05:11:32;9.70;;;5.10;;
35110;SDS011;21290;50.158;8.658;2023-02-05T05:13:59;7.47;;;5.10;;
35110;SDS011;21290;50.158;8.658;2023-02-05T05:16:25;6.63;;;4.32;;
35110;SDS011;21290;50.158;8.658;2023-02-05T05:18:52;6.78;;;4.57;;
35110;SDS011;21290;50.158;8.658;2023-02-05T05:21:19;8.05;;;4.45;;
35110;SDS011;21290;50.158;8.658;2023-02-05T05:23:45;8.43;;;5.15;;
35110;SDS011;21290;50.158;8.658;2023-02-05T05:26:12;7.72;;;4.93;;
35110;SDS011;21290;50.158;8.658;2023-02-05T05:28:38;7.07;;;4.90;;
35110;SDS011;21290;50.158;8.658;2023-02-05T05:31:09;8.93;;;4.90;;
35110;SDS011;21290;50.158;8.658;2023-02-05T05:33:41;7.32;;;4.90;;
35110;SDS011;21290;50.158;8.658;2023-02-05T05:36:08;8.27;;;4.95;;
35110;SDS011;21290;50.158;8.658;2023-02-05T05:38:35;7.95;;;4.95;;
35110;SDS011;21290;50.158;8.658;2023-02-05T05:41:01;10.38;;;5.40;;
35110;SDS011;21290;50.158;8.658;2023-02-05T05:43:47;9.57;;;5.05;;
35110;SDS011;21290;50.158;8.658;2023-02-05T05:46:19;11.45;;;5.72;;
35110;SDS011;21290;50.158;8.658;2023-02-05T05:48:53;9.43;;;5.00;;
35110;SDS011;21290;50.158;8.658;2023-02-05T05:51:24;12.52;;;6.05;;
35110;SDS011;21290;50.158;8.658;2023-02-05T05:53:52;9.32;;;5.90;;
35110;SDS011;21290;50.158;8.658;2023-02-05T05:56:20;9.82;;;5.85;;
35110;SDS011;21290;50.158;8.658;2023-02-05T05:58:47;10.07;;;5.57;;
35110;SDS011;21290;50.158;8.658;2023-02-05T06:01:15;9.45;;;5.22;;
35110;SDS011;21290;50.158;8.658;2023-02-05T06:03:44;12.75;;;6.90;;
35110;SDS011;21290;50.158;8.658;2023-02-05T06:06:10;11.77;;;5.85;;
35110;SDS011;21290;50.158;8.658;2023-02-05T06:08:38;11.02;;;5.68;;
35110;SDS011;21290;50.158;8.658;2023-02-05T06:11:04;10.35;;;6.32;;
35110;SDS011;21290;50.158;8.658;2023-02-05T06:13:31;9.32;;;6.00;;
35110;SDS011;21290;50.158;8.658;2023-02-05T06:15:59;11.68;;;6.50;;
35110;SDS011;21290;50.158;8.658;2023-02-05T06:18:26;11.25;;;6.53;;
35110;SDS011;21290;50.158;8.658;2023-02-05T06:20:53;12.43;;;5.72;;
35110;SDS011;21290;50.158;8.658;2023-02-05T06:23:19;9.40;;;5.18;;
35110;SDS011;21290;50.158;8.658;2023-02-05T06:25:46;10.82;;;5.78;;
35110;SDS011;21290;50.158;8.658;2023-02-05T06:28:13;8.50;;;5.43;;
35110;SDS011;21290;50.158;8.658;2023-02-05T06:30:39;13.88;;;6.15;;
35110;SDS011;21290;50.158;8.658;2023-02-05T06:33:06;10.90;;;6.07;;
35110;SDS011;21290;50.158;8.658;2023-02-05T06:35:32;11.63;;;7.13;;
35110;SDS011;21290;50.158;8.658;2023-02-05T06:38:00;13.40;;;7.72;;
35110;SDS011;21290;50.158;8.658;2023-02-05T06:40:26;13.05;;;8.40;;
35110;SDS011;21290;50.158;8.658;2023-02-05T06:42:53;15.48;;;8.45;;
35110;SDS011;21290;50.158;8.658;2023-02-05T06:45:20;18.08;;;8.70;;
35110;SDS011;21290;50.158;8.658;2023-02-05T06:47:47;12.27;;;8.07;;
35110;SDS011;21290;50.158;8.658;2023-02-05T06:50:14;15.68;;;8.35;;
35110;SDS011;21290;50.158;8.658;2023-02-05T06:52:40;20.38;;;9.55;;
35110;SDS011;21290;50.158;8.658;2023-02-05T06:55:07;16.45;;;9.85;;
35110;SDS011;21290;50.158;8.658;2023-02-05T06:57:34;13.73;;;8.63;;
35110;SDS011;21290;50.158;8.658;2023-02-05T07:00:00;14.40;;;8.77;;
35110;SDS011;21290;50.158;8.658;2023-02-05T07:02:27;18.15;;;9.00;;
35110;SDS011;21290;50.158;8.658;2023-02-05T07:04:54;15.13;;;8.88;;
35110;SDS011;21290;50.158;8.658;2023-02-05T07:07:21;17.33;;;8.38;;
35110;SDS011;21290;50.158;8.658;2023-02-05T07:09:47;14.57;;;8.98;;
35110;SDS011;21290;50.158;8.658;2023-02-05T07:12:14;17.13;;;10.15;;
35110;SDS011;21290;50.158;8.658;2023-02-05T07:14:40;13.25;;;8.63;;
35110;SDS011;21290;50.158;8.658;2023-02-05T07:17:07;13.63;;;9.27;;
35110;SDS011;21290;50.158;8.658;2023-02-05T07:19:34;19.33;;;8.93;;
35110;SDS011;21290;50.158;8.658;2023-02-05T07:22:01;14.80;;;9.43;;
35110;SDS011;21290;50.158;8.658;2023-02-05T07:24:28;20.58;;;9.93;;
35110;SDS011;21290;50.158;8.658;2023-02-05T07:26:55;17.13;;;9.88;;
35110;SDS011;21290;50.158;8.658;2023-02-05T07:29:22;14.30;;;9.90;;
35110;SDS011;21290;50.158;8.658;2023-02-05T07:31:49;14.75;;;9.82;;
35110;SDS011;21290;50.158;8.658;2023-02-05T07:34:16;19.10;;;10.35;;
35110;SDS011;21290;50.158;8.658;2023-02-05T07:36:43;18.38;;;10.15;;
35110;SDS011;21290;50.158;8.658;2023-02-05T07:39:09;15.68;;;10.38;;
35110;SDS011;21290;50.158;8.658;2023-02-05T07:41:36;21.10;;;11.35;;
35110;SDS011;21290;50.158;8.658;2023-02-05T07:44:02;21.95;;;10.82;;
35110;SDS011;21290;50.158;8.658;2023-02-05T07:46:29;23.08;;;10.88;;
35110;SDS011;21290;50.158;8.658;2023-02-05T07:48:56;20.67;;;11.00;;
35110;SDS011;21290;50.158;8.658;2023-02-05T07:51:22;18.00;;;10.85;;
35110;SDS011;21290;50.158;8.658;2023-02-05T07:53:51;16.45;;;10.55;;
35110;SDS011;21290;50.158;8.658;2023-02-05T07:56:18;15.43;;;10.25;;
35110;SDS011;21290;50.158;8.658;2023-02-05T07:58:47;19.43;;;10.67;;
35110;SDS011;21290;50.158;8.658;2023-02-05T08:01:13;19.83;;;10.63;;
35110;SDS011;21290;50.158;8.658;2023-02-05T08:03:40;19.35;;;11.07;;
35110;SDS011;21290;50.158;8.658;2023-02-05T08:06:07;18.45;;;11.90;;
35110;SDS011;21290;50.158;8.658;2023-02-05T08:08:36;27.75;;;13.50;;
35110;SDS011;21290;50.158;8.658;2023-02-05T08:11:03;28.63;;;14.25;;
35110;SDS011;21290;50.158;8.658;2023-02-05T08:13:31;21.05;;;13.65;;
35110;SDS011;21290;50.158;8.658;2023-02-05T08:15:58;29.58;;;14.88;;
35110;SDS011;21290;50.158;8.658;2023-02-05T08:18:29;28.55;;;15.10;;
35110;SDS011;21290;50.158;8.658;2023-02-05T08:20:55;29.45;;;16.30;;
35110;SDS011;21290;50.158;8.658;2023-02-05T08:23:22;30.55;;;15.18;;
35110;SDS011;21290;50.158;8.658;2023-02-05T08:25:55;30.85;;;16.48;;
35110;SDS011;21290;50.158;8.658;2023-02-05T08:28:23;27.00;;;16.77;;
35110;SDS011;21290;50.158;8.658;2023-02-05T08:30:51;31.67;;;18.70;;
35110;SDS011;21290;50.158;8.658;2023-02-05T08:33:17;38.38;;;17.30;;
35110;SDS011;21290;50.158;8.658;2023-02-05T08:35:44;31.00;;;18.80;;
35110;SDS011;21290;50.158;8.658;2023-02-05T08:38:11;33.78;;;18.60;;
35110;SDS011;21290;50.158;8.658;2023-02-05T08:40:37;36.88;;;18.33;;
35110;SDS011;21290;50.158;8.658;2023-02-05T08:43:04;28.95;;;18.35;;
35110;SDS011;21290;50.158;8.658;2023-02-05T08:45:32;38.13;;;19.90;;
35110;SDS011;21290;50.158;8.658;2023-02-05T08:48:00;35.50;;;18.60;;
35110;SDS011;21290;50.158;8.658;2023-02-05T08:50:26;36.22;;;18.80;;
35110;SDS011;21290;50.158;8.658;2023-02-05T08:52:53;30.15;;;17.90;;
35110;SDS011;21290;50.158;8.658;2023-02-05T08:55:20;31.85;;;18.10;;
35110;SDS011;21290;50.158;8.658;2023-02-05T08:57:47;33.05;;;17.40;;
35110;SDS011;21290;50.158;8.658;2023-02-05T09:00:13;38.00;;;18.90;;
35110;SDS011;21290;50.158;8.658;2023-02-05T09:02:41;42.92;;;18.95;;
35110;SDS011;21290;50.158;8.658;2023-02-05T09:05:08;30.52;;;16.88;;
35110;SDS011;21290;50.158;8.658;2023-02-05T09:07:36;28.77;;;17.05;;
35110;SDS011;21290;50.158;8.658;2023-02-05T09:10:05;32.60;;;17.35;;
35110;SDS011;21290;50.158;8.658;2023-02-05T09:12:32;24.80;;;13.55;;
35110;SDS011;21290;50.158;8.658;2023-02-05T09:14:59;31.02;;;16.92;;
35110;SDS011;21290;50.158;8.658;2023-02-05T09:17:25;36.15;;;18.60;;
35110;SDS011;21290;50.158;8.658;2023-02-05T09:19:52;37.30;;;18.33;;
35110;SDS011;21290;50.158;8.658;2023-02-05T09:22:18;31.50;;;18.88;;
35110;SDS011;21290;50.158;8.658;2023-02-05T09:24:45;32.63;;;18.33;;
35110;SDS011;21290;50.158;8.658;2023-02-05T09:27:12;25.50;;;16.80;;
35110;SDS011;21290;50.158;8.658;2023-02-05T09:29:40;26.02;;;17.55;;
35110;SDS011;21290;50.158;8.658;2023-02-05T09:32:06;31.00;;;17.30;;
35110;SDS011;21290;50.158;8.658;2023-02-05T09:34:33;33.72;;;17.75;;
35110;SDS011;21290;50.158;8.658;2023-02-05T09:37:00;32.45;;;16.70;;
35110;SDS011;21290;50.158;8.658;2023-02-05T09:39:26;40.80;;;19.52;;
35110;SDS011;21290;50.158;8.658;2023-02-05T09:45:01;29.02;;;15.95;;
35110;SDS011;21290;50.158;8.658;2023-02-05T09:47:41;35.13;;;16.38;;
35110;SDS011;21290;50.158;8.658;2023-02-05T09:50:22;26.92;;;16.73;;
35110;SDS011;21290;50.158;8.658;2023-02-05T09:52:56;31.33;;;16.52;;
35110;SDS011;21290;50.158;8.658;2023-02-05T09:55:28;29.65;;;16.67;;
35110;SDS011;21290;50.158;8.658;2023-02-05T09:58:01;30.00;;;18.13;;
35110;SDS011;21290;50.158;8.658;2023-02-05T10:03:22;30.85;;;18.23;;
35110;SDS011;21290;50.158;8.658;2023-02-05T10:08:46;31.42;;;19.02;;
35110;SDS011;21290;50.158;8.658;2023-02-05T10:11:35;32.15;;;18.60;;
35110;SDS011;21290;50.158;8.658;2023-02-05T10:14:18;42.95;;;19.80;;
35110;SDS011;21290;50.158;8.658;2023-02-05T10:16:53;38.97;;;20.17;;
35110;SDS011;21290;50.158;8.658;2023-02-05T10:19:41;31.52;;;20.17;;
35110;SDS011;21290;50.158;8.658;2023-02-05T10:22:25;35.40;;;20.73;;
35110;SDS011;21290;50.158;8.658;2023-02-05T10:27:55;34.22;;;21.92;;
35110;SDS011;21290;50.158;8.658;2023-02-05T10:30:46;39.20;;;22.80;;
35110;SDS011;21290;50.158;8.658;2023-02-05T10:33:18;36.58;;;21.88;;
35110;SDS011;21290;50.158;8.658;2023-02-05T10:36:04;40.17;;;24.27;;
35110;SDS011;21290;50.158;8.658;2023-02-05T10:38:34;36.92;;;22.30;;
35110;SDS011;21290;50.158;8.658;2023-02-05T10:41:11;34.67;;;21.40;;
35110;SDS011;21290;50.158;8.658;2023-02-05T10:46:41;36.92;;;22.05;;
35110;SDS011;21290;50.158;8.658;2023-02-05T10:49:23;39.72;;;22.60;;
35110;SDS011;21290;50.158;8.658;2023-02-05T10:51:57;38.10;;;22.52;;
35110;SDS011;21290;50.158;8.658;2023-02-05T10:54:27;38.92;;;23.45;;
35110;SDS011;21290;50.158;8.658;2023-02-05T10:56:56;41.00;;;21.42;;
35110;SDS011;21290;50.158;8.658;2023-02-05T10:59:25;31.90;;;20.77;;
35110;SDS011;21290;50.158;8.658;2023-02-05T11:01:55;38.08;;;21.58;;
35110;SDS011;21290;50.158;8.658;2023-02-05T11:04:38;47.40;;;24.10;;
35110;SDS011;21290;50.158;8.658;2023-02-05T11:07:20;35.38;;;21.77;;
35110;SDS011;21290;50.158;8.658;2023-02-05T11:09:49;28.40;;;19.25;;
35110;SDS011;21290;50.158;8.658;2023-02-05T11:12:26;34.33;;;20.70;;
35110;SDS011;21290;50.158;8.658;2023-02-05T11:14:58;32.55;;;19.55;;
35110;SDS011;21290;50.158;8.658;2023-02-05T11:17:30;38.45;;;20.70;;
35110;SDS011;21290;50.158;8.658;2023-02-05T11:22:42;34.00;;;20.13;;
35110;SDS011;21290;50.158;8.658;2023-02-05T11:25:15;23.77;;;13.97;;
35110;SDS011;21290;50.158;8.658;2023-02-05T11:27:52;38.40;;;18.95;;
35110;SDS011;21290;50.158;8.658;2023-02-05T11:30:34;32.88;;;19.02;;
35110;SDS011;21290;50.158;8.658;2023-02-05T11:38:32;30.15;;;20.25;;
35110;SDS011;21290;50.158;8.658;2023-02-05T11:41:07;34.20;;;19.00;;
35110;SDS011;21290;50.158;8.658;2023-02-05T11:43:35;30.30;;;19.08;;
35110;SDS011;21290;50.158;8.658;2023-02-05T11:46:13;36.35;;;20.40;;
35110;SDS011;21290;50.158;8.658;2023-02-05T11:48:57;36.50;;;20.25;;
35110;SDS011;21290;50.158;8.658;2023-02-05T11:54:02;28.13;;;18.85;;
35110;SDS011;21290;50.158;8.658;2023-02-05T11:56:42;37.17;;;21.40;;
35110;SDS011;21290;50.158;8.658;2023-02-05T11:59:24;33.75;;;21.08;;
35110;SDS011;21290;50.158;8.658;2023-02-05T12:01:50;35.15;;;19.98;;
35110;SDS011;21290;50.158;8.658;2023-02-05T12:04:18;36.55;;;21.15;;
35110;SDS011;21290;50.158;8.658;2023-02-05T12:06:50;34.15;;;21.52;;
35110;SDS011;21290;50.158;8.658;2023-02-05T12:09:20;34.15;;;20.77;;
35110;SDS011;21290;50.158;8.658;2023-02-05T12:11:52;33.17;;;20.92;;
35110;SDS011;21290;50.158;8.658;2023-02-05T12:20:16;46.72;;;26.52;;
35110;SDS011;21290;50.158;8.658;2023-02-05T12:22:55;31.88;;;21.10;;
35110;SDS011;21290;50.158;8.658;2023-02-05T12:25:57;33.08;;;20.33;;
35110;SDS011;21290;50.158;8.658;2023-02-05T12:28:47;36.90;;;21.65;;
35110;SDS011;21290;50.158;8.658;2023-02-05T12:34:21;34.50;;;20.67;;
35110;SDS011;21290;50.158;8.658;2023-02-05T12:37:32;32.88;;;20.17;;
35110;SDS011;21290;50.158;8.658;2023-02-05T12:39:58;28.38;;;20.13;;
35110;SDS011;21290;50.158;8.658;2023-02-05T12:42:35;58.17;;;29.58;;
35110;SDS011;21290;50.158;8.658;2023-02-05T12:47:51;24.92;;;18.08;;
35110;SDS011;21290;50.158;8.658;2023-02-05T12:51:15;31.30;;;18.85;;
35110;SDS011;21290;50.158;8.658;2023-02-05T12:59:49;29.48;;;19.50;;
35110;SDS011;21290;50.158;8.658;2023-02-05T13:05:07;27.05;;;18.77;;
35110;SDS011;21290;50.158;8.658;2023-02-05T13:07:41;25.90;;;19.33;;
35110;SDS011;21290;50.158;8.658;2023-02-05T13:13:01;38.92;;;23.33;;
35110;SDS011;21290;50.158;8.658;2023-02-05T13:15:33;26.20;;;19.25;;
35110;SDS011;21290;50.158;8.658;2023-02-05T13:18:08;26.02;;;17.77;;
35110;SDS011;21290;50.158;8.658;2023-02-05T13:20:41;28.35;;;19.67;;
35110;SDS011;21290;50.158;8.658;2023-02-05T13:23:33;26.00;;;17.80;;
35110;SDS011;21290;50.158;8.658;2023-02-05T13:26:19;23.25;;;17.13;;
35110;SDS011;21290;50.158;8.658;2023-02-05T13:29:12;26.20;;;18.00;;
35110;SDS011;21290;50.158;8.658;2023-02-05T13:31:42;23.73;;;16.38;;
35110;SDS011;21290;50.158;8.658;2023-02-05T13:34:14;20.58;;;12.75;;
35110;SDS011;21290;50.158;8.658;2023-02-05T13:45:41;20.92;;;13.55;;
35110;SDS011;21290;50.158;8.658;2023-02-05T13:48:36;19.17;;;12.25;;
35110;SDS011;21290;50.158;8.658;2023-02-05T13:59:48;18.48;;;12.13;;
35110;SDS011;21290;50.158;8.658;2023-02-05T14:04:59;17.50;;;12.18;;
35110;SDS011;21290;50.158;8.658;2023-02-05T14:07:28;19.23;;;12.63;;
35110;SDS011;21290;50.158;8.658;2023-02-05T14:10:03;17.17;;;12.25;;
35110;SDS011;21290;50.158;8.658;2023-02-05T14:12:34;15.57;;;12.00;;
35110;SDS011;21290;50.158;8.658;2023-02-05T14:22:50;19.42;;;14.32;;
35110;SDS011;21290;50.158;8.658;2023-02-05T14:28:01;23.60;;;14.02;;
35110;SDS011;21290;50.158;8.658;2023-02-05T14:32:59;18.27;;;13.57;;
35110;SDS011;21290;50.158;8.658;2023-02-05T14:37:59;24.23;;;14.20;;
35110;SDS011;21290;50.158;8.658;2023-02-05T14:40:31;19.88;;;14.63;;
35110;SDS011;21290;50.158;8.658;2023-02-05T14:45:44;14.85;;;12.45;;
35110;SDS011;21290;50.158;8.658;2023-02-05T14:48:19;16.65;;;12.43;;
35110;SDS011;21290;50.158;8.658;2023-02-05T14:51:00;23.05;;;14.02;;
35110;SDS011;21290;50.158;8.658;2023-02-05T14:53:33;17.15;;;12.02;;
35110;SDS011;21290;50.158;8.658;2023-02-05T14:58:30;15.23;;;11.35;;
35110;SDS011;21290;50.158;8.658;2023-02-05T15:03:59;16.25;;;12.60;;
35110;SDS011;21290;50.158;8.658;2023-02-05T15:06:28;17.00;;;12.55;;
35110;SDS011;21290;50.158;8.658;2023-02-05T15:09:04;18.40;;;12.68;;
35110;SDS011;21290;50.158;8.658;2023-02-05T15:20:00;17.23;;;12.35;;
35110;SDS011;21290;50.158;8.658;2023-02-05T15:22:43;15.88;;;12.65;;
35110;SDS011;21290;50.158;8.658;2023-02-05T15:25:33;16.23;;;13.23;;
35110;SDS011;21290;50.158;8.658;2023-02-05T15:28:16;15.65;;;12.80;;
35110;SDS011;21290;50.158;8.658;2023-02-05T15:30:52;20.88;;;13.63;;
35110;SDS011;21290;50.158;8.658;2023-02-05T15:33:42;20.03;;;13.77;;
35110;SDS011;21290;50.158;8.658;2023-02-05T15:36:16;22.13;;;14.93;;
35110;SDS011;21290;50.158;8.658;2023-02-05T15:38:49;21.42;;;14.80;;
35110;SDS011;21290;50.158;8.658;2023-02-05T15:41:24;18.30;;;13.80;;
35110;SDS011;21290;50.158;8.658;2023-02-05T15:43:58;19.52;;;15.02;;
35110;SDS011;21290;50.158;8.658;2023-02-05T15:46:26;19.10;;;14.15;;
35110;SDS011;21290;50.158;8.658;2023-02-05T15:48:54;19.60;;;14.50;;
35110;SDS011;21290;50.158;8.658;2023-02-05T15:51:31;19.60;;;14.10;;
35110;SDS011;21290;50.158;8.658;2023-02-05T15:54:01;17.67;;;13.13;;
35110;SDS011;21290;50.158;8.658;2023-02-05T15:56:35;21.83;;;14.50;;
35110;SDS011;21290;50.158;8.658;2023-02-05T16:01:43;14.40;;;11.95;;
35110;SDS011;21290;50.158;8.658;2023-02-05T16:04:37;15.73;;;11.43;;
35110;SDS011;21290;50.158;8.658;2023-02-05T16:07:18;16.25;;;11.85;;
35110;SDS011;21290;50.158;8.658;2023-02-05T16:09:48;14.15;;;11.27;;
35110;SDS011;21290;50.158;8.658;2023-02-05T16:12:19;19.58;;;13.05;;
35110;SDS011;21290;50.158;8.658;2023-02-05T16:14:45;28.55;;;14.02;;
35110;SDS011;21290;50.158;8.658;2023-02-05T16:17:26;16.63;;;11.98;;
35110;SDS011;21290;50.158;8.658;2023-02-05T16:22:51;14.93;;;11.43;;
35110;SDS011;21290;50.158;8.658;2023-02-05T16:26:14;16.83;;;12.25;;
35110;SDS011;21290;50.158;8.658;2023-02-05T16:28:41;16.33;;;12.00;;
35110;SDS011;21290;50.158;8.658;2023-02-05T16:31:14;16.42;;;11.80;;
35110;SDS011;21290;50.158;8.658;2023-02-05T16:33:47;18.67;;;11.90;;
35110;SDS011;21290;50.158;8.658;2023-02-05T16:36:20;16.25;;;12.00;;
35110;SDS011;21290;50.158;8.658;2023-02-05T16:38:51;14.43;;;11.88;;
35110;SDS011;21290;50.158;8.658;2023-02-05T16:41:22;16.05;;;12.50;;
35110;SDS011;21290;50.158;8.658;2023-02-05T16:43:52;14.00;;;11.68;;
35110;SDS011;21290;50.158;8.658;2023-02-05T16:48:55;15.93;;;11.55;;
35110;SDS011;21290;50.158;8.658;2023-02-05T16:51:27;16.63;;;12.52;;
35110;SDS011;21290;50.158;8.658;2023-02-05T16:59:21;14.82;;;12.25;;
35110;SDS011;21290;50.158;8.658;2023-02-05T17:01:51;16.65;;;12.90;;
35110;SDS011;21290;50.158;8.658;2023-02-05T17:04:34;15.82;;;12.38;;